sensor_id;sensor_type;location;lat;lon;timestamp;P1;durP1;ratioP1;P2;durP2;ratioP2
43861;SDS011;29510;52.140;5.034;2023-09-18T00:00:55;38.35;;;26.30;;
43861;SDS011;29510;52.140;5.034;2023-09-18T00:10:58;41.78;;;28.10;;
43861;SDS011;29510;52.140;5.034;2023-09-18T00:21:00;37.80;;;26.40;;
43861;SDS011;29510;52.140;5.034;2023-09-18T00:31:01;36.35;;;26.40;;
43861;SDS011;29510;52.140;5.034;2023-09-18T00:41:01;28.47;;;20.40;;
43861;SDS011;29510;52.140;5.034;2023-09-18T00:51:02;21.70;;;17.27;;
43861;SDS011;29510;52.140;5.034;2023-09-18T01:01:03;26.33;;;19.98;;
43861;SDS011;29510;52.140;5.034;2023-09-18T01:11:06;22.45;;;18.40;;
43861;SDS011;29510;52.140;5.034;2023-09-18T01:21:14;24.90;;;20.23;;
43861;SDS011;29510;52.140;5.034;2023-09-18T01:31:14;26.58;;;19.45;;
43861;SDS011;29510;52.140;5.034;2023-09-18T01:41:17;20.27;;;17.50;;
43861;SDS011;29510;52.140;5.034;2023-09-18T01:51:18;23.98;;;17.33;;
43861;SDS011;29510;52.140;5.034;2023-09-18T02:01:19;27.07;;;20.90;;
43861;SDS011;29510;52.140;5.034;2023-09-18T02:11:19;26.75;;;20.52;;
43861;SDS011;29510;52.140;5.034;2023-09-18T02:21:20;32.45;;;23.67;;
43861;SDS011;29510;52.140;5.034;2023-09-18T02:31:21;28.13;;;21.88;;
43861;SDS011;29510;52.140;5.034;2023-09-18T02:41:22;25.90;;;20.40;;
43861;SDS011;29510;52.140;5.034;2023-09-18T02:51:23;25.23;;;20.40;;
43861;SDS011;29510;52.140;5.034;2023-09-18T03:01:24;22.48;;;17.23;;
43861;SDS011;29510;52.140;5.034;2023-09-18T03:11:24;22.83;;;18.15;;
43861;SDS011;29510;52.140;5.034;2023-09-18T03:21:27;25.98;;;20.38;;
43861;SDS011;29510;52.140;5.034;2023-09-18T03:31:27;28.90;;;22.70;;
43861;SDS011;29510;52.140;5.034;2023-09-18T03:41:29;28.42;;;21.02;;
43861;SDS011;29510;52.140;5.034;2023-09-18T03:51:33;23.65;;;19.05;;
43861;SDS011;29510;52.140;5.034;2023-09-18T04:01:34;21.23;;;17.48;;
43861;SDS011;29510;52.140;5.034;2023-09-18T04:11:36;21.63;;;17.52;;
43861;SDS011;29510;52.140;5.034;2023-09-18T04:21:36;5.47;;;2.80;;
43861;SDS011;29510;52.140;5.034;2023-09-18T04:31:37;13.65;;;8.85;;
43861;SDS011;29510;52.140;5.034;2023-09-18T04:41:38;17.13;;;13.68;;
43861;SDS011;29510;52.140;5.034;2023-09-18T04:51:39;16.55;;;12.73;;
43861;SDS011;29510;52.140;5.034;2023-09-18T05:01:39;15.23;;;12.30;;
43861;SDS011;29510;52.140;5.034;2023-09-18T05:11:40;18.52;;;12.55;;
43861;SDS011;29510;52.140;5.034;2023-09-18T05:21:41;16.15;;;12.68;;
43861;SDS011;29510;52.140;5.034;2023-09-18T05:31:43;15.65;;;11.90;;
43861;SDS011;29510;52.140;5.034;2023-09-18T05:41:44;21.13;;;15.13;;
43861;SDS011;29510;52.140;5.034;2023-09-18T05:51:44;20.77;;;14.90;;
43861;SDS011;29510;52.140;5.034;2023-09-18T06:01:47;27.02;;;19.25;;
43861;SDS011;29510;52.140;5.034;2023-09-18T06:11:49;23.75;;;18.35;;
43861;SDS011;29510;52.140;5.034;2023-09-18T06:21:49;19.33;;;16.30;;
43861;SDS011;29510;52.140;5.034;2023-09-18T06:31:50;21.95;;;15.25;;
43861;SDS011;29510;52.140;5.034;2023-09-18T06:41:51;18.70;;;14.10;;
43861;SDS011;29510;52.140;5.034;2023-09-18T06:51:51;17.17;;;12.50;;
43861;SDS011;29510;52.140;5.034;2023-09-18T07:01:52;16.17;;;11.27;;
43861;SDS011;29510;52.140;5.034;2023-09-18T07:11:53;16.90;;;10.63;;
43861;SDS011;29510;52.140;5.034;2023-09-18T07:21:53;14.77;;;10.73;;
43861;SDS011;29510;52.140;5.034;2023-09-18T07:31:54;13.93;;;9.05;;
43861;SDS011;29510;52.140;5.034;2023-09-18T07:41:54;12.43;;;8.18;;
43861;SDS011;29510;52.140;5.034;2023-09-18T07:51:55;17.13;;;11.15;;
43861;SDS011;29510;52.140;5.034;2023-09-18T08:01:56;15.98;;;11.15;;
43861;SDS011;29510;52.140;5.034;2023-09-18T08:11:57;13.98;;;10.40;;
43861;SDS011;29510;52.140;5.034;2023-09-18T08:21:58;13.80;;;10.70;;
43861;SDS011;29510;52.140;5.034;2023-09-18T08:32:01;14.95;;;11.35;;
43861;SDS011;29510;52.140;5.034;2023-09-18T08:42:02;14.10;;;9.75;;
43861;SDS011;29510;52.140;5.034;2023-09-18T08:52:04;10.60;;;8.32;;
43861;SDS011;29510;52.140;5.034;2023-09-18T09:02:04;13.77;;;8.57;;
43861;SDS011;29510;52.140;5.034;2023-09-18T09:12:05;11.55;;;7.97;;
43861;SDS011;29510;52.140;5.034;2023-09-18T09:22:06;8.07;;;6.25;;
43861;SDS011;29510;52.140;5.034;2023-09-18T09:32:16;7.43;;;5.85;;
43861;SDS011;29510;52.140;5.034;2023-09-18T09:42:18;7.40;;;5.82;;
43861;SDS011;29510;52.140;5.034;2023-09-18T09:52:28;8.68;;;6.05;;
43861;SDS011;29510;52.140;5.034;2023-09-18T10:02:28;9.32;;;5.30;;
43861;SDS011;29510;52.140;5.034;2023-09-18T10:12:30;7.85;;;6.57;;
43861;SDS011;29510;52.140;5.034;2023-09-18T10:22:37;8.70;;;6.95;;
43861;SDS011;29510;52.140;5.034;2023-09-18T10:32:38;10.20;;;7.20;;
43861;SDS011;29510;52.140;5.034;2023-09-18T10:42:40;7.55;;;6.78;;
43861;SDS011;29510;52.140;5.034;2023-09-18T10:52:44;8.45;;;6.32;;
43861;SDS011;29510;52.140;5.034;2023-09-18T11:02:46;6.47;;;5.80;;
43861;SDS011;29510;52.140;5.034;2023-09-18T11:12:49;9.65;;;6.00;;
43861;SDS011;29510;52.140;5.034;2023-09-18T11:22:56;7.20;;;5.70;;
43861;SDS011;29510;52.140;5.034;2023-09-18T11:33:12;11.85;;;6.10;;
43861;SDS011;29510;52.140;5.034;2023-09-18T11:53:24;6.93;;;4.55;;
43861;SDS011;29510;52.140;5.034;2023-09-18T12:03:26;6.35;;;4.55;;
43861;SDS011;29510;52.140;5.034;2023-09-18T12:13:27;5.25;;;3.85;;
43861;SDS011;29510;52.140;5.034;2023-09-18T12:23:29;6.70;;;4.28;;
43861;SDS011;29510;52.140;5.034;2023-09-18T12:33:38;6.55;;;3.90;;
43861;SDS011;29510;52.140;5.034;2023-09-18T12:43:40;5.80;;;3.60;;
43861;SDS011;29510;52.140;5.034;2023-09-18T12:53:41;4.80;;;3.30;;
43861;SDS011;29510;52.140;5.034;2023-09-18T13:03:42;5.40;;;3.70;;
43861;SDS011;29510;52.140;5.034;2023-09-18T13:13:44;7.32;;;3.60;;
43861;SDS011;29510;52.140;5.034;2023-09-18T13:23:44;7.13;;;4.97;;
43861;SDS011;29510;52.140;5.034;2023-09-18T13:33:45;4.75;;;3.83;;
43861;SDS011;29510;52.140;5.034;2023-09-18T13:43:45;4.65;;;3.65;;
43861;SDS011;29510;52.140;5.034;2023-09-18T13:53:47;5.55;;;3.70;;
43861;SDS011;29510;52.140;5.034;2023-09-18T14:03:48;4.60;;;3.78;;
43861;SDS011;29510;52.140;5.034;2023-09-18T14:13:50;5.53;;;2.90;;
43861;SDS011;29510;52.140;5.034;2023-09-18T14:23:51;7.22;;;3.33;;
43861;SDS011;29510;52.140;5.034;2023-09-18T14:33:52;4.75;;;2.20;;
43861;SDS011;29510;52.140;5.034;2023-09-18T14:43:52;5.82;;;2.67;;
43861;SDS011;29510;52.140;5.034;2023-09-18T14:53:54;4.68;;;2.88;;
43861;SDS011;29510;52.140;5.034;2023-09-18T15:03:55;4.53;;;1.30;;
43861;SDS011;29510;52.140;5.034;2023-09-18T15:13:55;1.85;;;1.05;;
43861;SDS011;29510;52.140;5.034;2023-09-18T15:23:56;1.92;;;1.00;;
43861;SDS011;29510;52.140;5.034;2023-09-18T15:33:57;3.55;;;1.48;;
43861;SDS011;29510;52.140;5.034;2023-09-18T15:43:58;3.83;;;1.60;;
43861;SDS011;29510;52.140;5.034;2023-09-18T15:53:58;2.47;;;1.25;;
43861;SDS011;29510;52.140;5.034;2023-09-18T16:03:59;3.95;;;1.42;;
43861;SDS011;29510;52.140;5.034;2023-09-18T16:14:00;4.97;;;1.48;;
43861;SDS011;29510;52.140;5.034;2023-09-18T16:24:00;3.92;;;1.90;;
43861;SDS011;29510;52.140;5.034;2023-09-18T16:34:06;4.70;;;2.22;;
43861;SDS011;29510;52.140;5.034;2023-09-18T16:44:07;4.90;;;2.20;;
43861;SDS011;29510;52.140;5.034;2023-09-18T16:54:08;4.15;;;2.13;;
43861;SDS011;29510;52.140;5.034;2023-09-18T17:04:08;4.97;;;2.40;;
43861;SDS011;29510;52.140;5.034;2023-09-18T17:14:11;7.55;;;2.53;;
43861;SDS011;29510;52.140;5.034;2023-09-18T17:24:12;6.65;;;2.38;;
43861;SDS011;29510;52.140;5.034;2023-09-18T17:34:12;9.05;;;2.20;;
43861;SDS011;29510;52.140;5.034;2023-09-18T17:44:13;5.72;;;2.38;;
43861;SDS011;29510;52.140;5.034;2023-09-18T17:54:14;9.98;;;2.22;;
43861;SDS011;29510;52.140;5.034;2023-09-18T18:04:15;7.32;;;1.73;;
43861;SDS011;29510;52.140;5.034;2023-09-18T18:14:15;6.28;;;1.90;;
43861;SDS011;29510;52.140;5.034;2023-09-18T18:24:16;7.60;;;1.77;;
43861;SDS011;29510;52.140;5.034;2023-09-18T18:34:17;8.25;;;1.80;;
43861;SDS011;29510;52.140;5.034;2023-09-18T18:44:17;11.20;;;2.30;;
43861;SDS011;29510;52.140;5.034;2023-09-18T18:54:18;9.52;;;2.42;;
43861;SDS011;29510;52.140;5.034;2023-09-18T19:04:19;10.70;;;2.67;;
43861;SDS011;29510;52.140;5.034;2023-09-18T19:14:20;9.18;;;2.10;;
43861;SDS011;29510;52.140;5.034;2023-09-18T19:24:20;6.97;;;2.53;;
43861;SDS011;29510;52.140;5.034;2023-09-18T19:34:21;8.27;;;2.20;;
43861;SDS011;29510;52.140;5.034;2023-09-18T19:44:22;7.10;;;2.55;;
43861;SDS011;29510;52.140;5.034;2023-09-18T19:54:22;10.75;;;2.45;;
43861;SDS011;29510;52.140;5.034;2023-09-18T20:04:24;16.10;;;3.28;;
43861;SDS011;29510;52.140;5.034;2023-09-18T20:14:25;8.38;;;2.75;;
43861;SDS011;29510;52.140;5.034;2023-09-18T20:24:25;6.22;;;2.15;;
43861;SDS011;29510;52.140;5.034;2023-09-18T20:34:26;11.23;;;2.00;;
43861;SDS011;29510;52.140;5.034;2023-09-18T20:44:28;8.07;;;2.00;;
43861;SDS011;29510;52.140;5.034;2023-09-18T20:54:28;8.00;;;2.13;;
43861;SDS011;29510;52.140;5.034;2023-09-18T21:04:29;5.03;;;1.80;;
43861;SDS011;29510;52.140;5.034;2023-09-18T21:14:29;11.10;;;2.40;;
43861;SDS011;29510;52.140;5.034;2023-09-18T21:24:30;6.80;;;2.03;;
43861;SDS011;29510;52.140;5.034;2023-09-18T21:34:33;7.82;;;1.85;;
43861;SDS011;29510;52.140;5.034;2023-09-18T21:44:35;7.40;;;2.00;;
43861;SDS011;29510;52.140;5.034;2023-09-18T21:54:37;7.28;;;1.50;;
43861;SDS011;29510;52.140;5.034;2023-09-18T22:04:39;11.20;;;1.67;;
43861;SDS011;29510;52.140;5.034;2023-09-18T22:14:39;9.93;;;1.65;;
43861;SDS011;29510;52.140;5.034;2023-09-18T22:24:40;5.90;;;1.50;;
43861;SDS011;29510;52.140;5.034;2023-09-18T22:34:40;3.97;;;1.35;;
43861;SDS011;29510;52.140;5.034;2023-09-18T22:55:19;9.17;;;1.60;;
43861;SDS011;29510;52.140;5.034;2023-09-18T23:05:21;5.90;;;1.35;;
43861;SDS011;29510;52.140;5.034;2023-09-18T23:15:23;4.93;;;1.20;;
43861;SDS011;29510;52.140;5.034;2023-09-18T23:25:24;6.28;;;1.30;;
43861;SDS011;29510;52.140;5.034;2023-09-18T23:35:25;4.85;;;1.17;;
43861;SDS011;29510;52.140;5.034;2023-09-18T23:45:27;10.40;;;1.20;;
43861;SDS011;29510;52.140;5.034;2023-09-18T23:55:32;7.00;;;1.70;;
